Terminal Aerodrome Forecast
Issued by NWS

Home | Current Version | Previous Version | Text Only | Print | Product List | Glossary On
Versions: 1 2 3 4 5 6 7 8 9 10 11 12 13 14 15 16 17 18
770
FTUS46 KMFR 252339
TAFOTH
TAF
KOTH 252339Z 2600/2624 35015G22KT P6SM BKN008
     FM260400 36012G18KT 4SM BR OVC008
     FM261200 36005KT 1SM BR OVC004
     FM261900 36022G30KT P6SM SCT004=

USA.gov is the U.S. government's official web portal to all federal, state and local government web resources and services.